createdAt,value
2022-11-28T00:00:18.381Z,8.47
2022-11-28T00:02:47.442Z,8.67
2022-11-28T00:05:16.533Z,8.77
2022-11-28T00:07:46.992Z,9.93
2022-11-28T00:10:16.246Z,9.10
2022-11-28T00:12:45.268Z,8.77
2022-11-28T00:15:14.366Z,9.93
2022-11-28T00:17:43.561Z,10.20
2022-11-28T00:20:12.766Z,9.13
2022-11-28T00:22:41.644Z,9.53
2022-11-28T00:25:12.353Z,10.07
2022-11-28T00:27:41.304Z,9.60
2022-11-28T00:30:11.468Z,9.97
2022-11-28T00:32:40.769Z,10.13
2022-11-28T00:35:09.868Z,10.20
2022-11-28T00:37:38.729Z,9.87
2022-11-28T00:40:09.138Z,10.47
2022-11-28T00:42:39.712Z,9.77
2022-11-28T00:45:10.232Z,9.50
2022-11-28T00:47:39.531Z,9.57
2022-11-28T00:50:09.435Z,10.03
2022-11-28T00:52:38.318Z,10.80
2022-11-28T00:55:07.514Z,10.40
2022-11-28T00:57:36.157Z,11.47
2022-11-28T01:00:08.199Z,10.50
2022-11-28T01:02:37.675Z,10.03
2022-11-28T01:05:07.169Z,10.47
2022-11-28T01:07:35.967Z,9.43
2022-11-28T01:10:06.344Z,9.53
2022-11-28T01:12:35.450Z,10.77
2022-11-28T01:15:06.576Z,9.77
2022-11-28T01:17:35.512Z,10.33
2022-11-28T01:20:06.611Z,10.23
2022-11-28T01:22:36.022Z,10.33
2022-11-28T01:25:05.136Z,10.97
2022-11-28T01:27:34.089Z,10.60
2022-11-28T01:30:02.925Z,11.17
2022-11-28T01:32:32.927Z,10.77
2022-11-28T01:35:02.197Z,11.03
2022-11-28T01:37:31.659Z,9.97
2022-11-28T01:40:00.414Z,11.90
2022-11-28T01:42:29.512Z,11.07
2022-11-28T01:45:10.183Z,10.77
2022-11-28T01:47:40.649Z,10.13
2022-11-28T01:50:10.402Z,10.87
2022-11-28T01:52:40.212Z,10.87
2022-11-28T01:55:11.046Z,10.53
2022-11-28T01:57:40.221Z,11.90
2022-11-28T02:00:12.520Z,11.40
2022-11-28T02:02:50.968Z,11.53
2022-11-28T02:05:21.802Z,12.60
2022-11-28T02:07:52.590Z,11.83
2022-11-28T02:10:25.207Z,11.53
2022-11-28T02:13:09.469Z,11.50
2022-11-28T02:15:52.937Z,11.73
2022-11-28T02:18:39.836Z,13.00
2022-11-28T02:21:24.995Z,13.43
2022-11-28T02:24:11.021Z,12.27
2022-11-28T02:27:44.500Z,13.03
2022-11-28T02:30:17.425Z,13.00
2022-11-28T02:33:01.964Z,13.67
2022-11-28T02:35:36.073Z,14.40
2022-11-28T02:38:10.700Z,13.17
2022-11-28T02:40:44.966Z,13.37
2022-11-28T02:43:21.994Z,14.43
2022-11-28T02:45:56.877Z,14.57
2022-11-28T02:48:31.072Z,13.07
2022-11-28T02:51:03.881Z,15.53
2022-11-28T02:53:34.709Z,13.43
2022-11-28T02:56:04.367Z,12.97
2022-11-28T02:58:33.110Z,15.70
2022-11-28T03:01:02.576Z,14.55
2022-11-28T03:03:47.402Z,15.37
2022-11-28T03:06:23.451Z,14.10
2022-11-28T03:09:08.296Z,14.37
2022-11-28T03:11:48.418Z,16.37
2022-11-28T03:14:26.419Z,15.63
2022-11-28T03:17:01.716Z,14.80
2022-11-28T03:19:34.817Z,14.13
2022-11-28T03:22:09.319Z,15.17
2022-11-28T03:24:43.716Z,14.60
2022-11-28T03:27:17.550Z,14.30
2022-11-28T03:29:50.022Z,14.90
2022-11-28T03:32:22.041Z,14.87
2022-11-28T03:34:57.845Z,14.20
2022-11-28T03:37:29.223Z,15.23
2022-11-28T03:40:01.842Z,14.43
2022-11-28T03:42:33.698Z,14.60
2022-11-28T03:45:06.669Z,14.90
2022-11-28T03:47:37.874Z,15.43
2022-11-28T03:50:11.867Z,14.23
2022-11-28T03:52:45.136Z,15.27
2022-11-28T03:55:17.519Z,13.63
2022-11-28T03:57:50.589Z,13.93
2022-11-28T04:00:19.719Z,14.20
2022-11-28T04:02:55.595Z,14.37
2022-11-28T04:05:31.266Z,13.97
2022-11-28T04:08:02.193Z,14.07
2022-11-28T04:10:35.213Z,14.53
2022-11-28T04:13:09.369Z,14.57
2022-11-28T04:15:43.499Z,14.57
2022-11-28T04:18:21.118Z,14.97
2022-11-28T04:20:54.476Z,15.07
2022-11-28T04:23:23.857Z,14.87
2022-11-28T04:25:55.732Z,14.97
2022-11-28T04:28:27.646Z,15.07
2022-11-28T04:30:59.228Z,14.77
2022-11-28T04:33:30.327Z,14.60
2022-11-28T04:36:01.475Z,15.67
2022-11-28T04:38:30.899Z,16.23
2022-11-28T04:41:06.852Z,16.03
2022-11-28T04:43:39.295Z,15.13
2022-11-28T04:46:13.425Z,15.47
2022-11-28T04:48:42.739Z,15.10
2022-11-28T04:51:19.907Z,15.47
2022-11-28T04:53:53.823Z,15.73
2022-11-28T04:56:25.079Z,15.33
2022-11-28T04:58:53.831Z,15.90
2022-11-28T05:01:26.376Z,15.67
2022-11-28T05:03:55.730Z,15.43
2022-11-28T05:06:28.436Z,15.17
2022-11-28T05:08:57.262Z,15.93
2022-11-28T05:11:26.283Z,15.17
2022-11-28T05:13:55.912Z,15.47
2022-11-28T05:16:25.400Z,14.77
2022-11-28T05:18:53.927Z,14.17
2022-11-28T05:21:22.816Z,14.13
2022-11-28T05:23:53.066Z,14.47
2022-11-28T05:26:24.067Z,14.97
2022-11-28T05:28:53.537Z,15.27
2022-11-28T05:31:23.149Z,15.43
2022-11-28T05:33:52.559Z,14.43
2022-11-28T05:36:21.072Z,15.07
2022-11-28T05:38:50.203Z,15.37
2022-11-28T05:41:24.494Z,14.57
2022-11-28T05:43:53.549Z,14.27
2022-11-28T05:46:22.474Z,14.83
2022-11-28T05:48:51.360Z,13.20
2022-11-28T05:51:20.412Z,14.50
2022-11-28T05:53:49.051Z,14.27
2022-11-28T05:56:19.926Z,12.97
2022-11-28T05:58:50.672Z,13.83
2022-11-28T06:01:21.043Z,13.93
2022-11-28T06:03:50.231Z,13.43
2022-11-28T06:06:21.149Z,14.80
2022-11-28T06:08:51.584Z,13.70
2022-11-28T06:11:21.673Z,14.57
2022-11-28T06:13:52.125Z,14.43
2022-11-28T06:16:22.639Z,14.00
2022-11-28T06:18:54.823Z,13.83
2022-11-28T06:21:23.896Z,13.93
2022-11-28T06:23:52.869Z,14.50
2022-11-28T06:26:24.071Z,14.40
2022-11-28T06:28:55.586Z,13.37
2022-11-28T06:31:25.632Z,14.10
2022-11-28T06:33:54.370Z,13.03
2022-11-28T06:36:22.971Z,14.80
2022-11-28T06:38:52.037Z,13.17
2022-11-28T06:41:23.005Z,13.80
2022-11-28T06:43:53.718Z,14.13
2022-11-28T06:46:23.633Z,14.80
2022-11-28T06:48:53.272Z,13.40
2022-11-28T06:51:23.038Z,13.93
2022-11-28T06:53:52.435Z,14.53
2022-11-28T06:56:22.202Z,13.17
2022-11-28T06:58:57.752Z,12.50
2022-11-28T07:01:29.404Z,12.97
2022-11-28T07:03:58.518Z,13.53
2022-11-28T07:06:28.494Z,12.53
2022-11-28T07:08:59.045Z,13.43
2022-11-28T07:11:29.136Z,13.13
2022-11-28T07:14:00.492Z,11.97
2022-11-28T07:16:31.540Z,11.77
2022-11-28T07:19:00.680Z,12.90
2022-11-28T07:21:30.464Z,13.10
2022-11-28T07:23:59.880Z,12.20
2022-11-28T07:26:28.682Z,12.47
2022-11-28T07:29:00.040Z,12.87
2022-11-28T07:31:32.417Z,11.77
2022-11-28T07:34:04.411Z,13.43
2022-11-28T07:36:33.607Z,12.93
2022-11-28T07:39:04.754Z,12.60
2022-11-28T07:41:33.185Z,12.40
2022-11-28T07:44:05.172Z,12.57
2022-11-28T07:46:35.241Z,13.23
2022-11-28T07:49:04.607Z,12.53
2022-11-28T07:51:35.075Z,12.23
2022-11-28T07:54:06.143Z,13.37
2022-11-28T07:57:04.479Z,12.50
2022-11-28T07:59:26.746Z,12.50
2022-11-28T08:01:55.802Z,12.27
2022-11-28T08:04:24.872Z,12.63
2022-11-28T08:06:54.004Z,12.13
2022-11-28T08:09:22.912Z,12.20
2022-11-28T08:11:52.538Z,11.67
2022-11-28T08:14:21.753Z,12.63
2022-11-28T08:16:52.506Z,12.93
2022-11-28T08:19:24.552Z,13.70
2022-11-28T08:21:53.727Z,12.23
2022-11-28T08:24:22.341Z,12.97
2022-11-28T08:26:51.195Z,11.93
2022-11-28T08:29:20.125Z,12.37
2022-11-28T08:31:49.201Z,13.03
2022-11-28T08:34:19.326Z,12.37
2022-11-28T08:36:49.139Z,13.70
2022-11-28T08:39:26.237Z,11.87
2022-11-28T08:41:57.396Z,12.57
2022-11-28T08:44:30.165Z,12.87
2022-11-28T08:47:00.737Z,13.43
2022-11-28T08:49:31.234Z,13.63
2022-11-28T08:52:00.106Z,14.33
2022-11-28T08:54:28.906Z,13.80
2022-11-28T08:56:59.079Z,15.27
2022-11-28T08:59:27.939Z,13.20
2022-11-28T09:01:57.332Z,12.77
2022-11-28T09:04:26.927Z,13.73
2022-11-28T09:06:57.236Z,13.47
2022-11-28T09:09:29.117Z,12.70
2022-11-28T09:12:01.179Z,14.03
2022-11-28T09:14:30.052Z,13.23
2022-11-28T09:16:58.906Z,13.97
2022-11-28T09:19:27.760Z,13.93
2022-11-28T09:21:58.199Z,13.60
2022-11-28T09:24:27.251Z,14.40
2022-11-28T09:26:57.107Z,13.33
2022-11-28T09:29:26.393Z,12.33
2022-11-28T09:31:55.766Z,14.17
2022-11-28T09:34:24.692Z,12.37
2022-11-28T09:36:53.339Z,14.43
2022-11-28T09:39:24.257Z,12.87
2022-11-28T09:42:00.118Z,12.80
2022-11-28T09:44:33.284Z,13.53
2022-11-28T09:47:05.919Z,13.90
2022-11-28T09:49:41.043Z,14.47
2022-11-28T09:52:23.259Z,13.63
2022-11-28T09:54:59.965Z,13.47
2022-11-28T09:57:34.684Z,14.13
2022-11-28T10:00:05.144Z,14.10
2022-11-28T10:02:46.871Z,13.47
2022-11-28T10:05:21.537Z,14.30
2022-11-28T10:08:00.471Z,14.90
2022-11-28T10:10:37.359Z,14.70
2022-11-28T10:13:13.902Z,13.93
2022-11-28T10:15:49.939Z,12.77
2022-11-28T10:18:28.243Z,14.20
2022-11-28T10:20:59.882Z,14.37
2022-11-28T10:23:31.495Z,14.03
2022-11-28T10:26:04.030Z,13.30
2022-11-28T10:28:35.695Z,14.33
2022-11-28T10:31:08.659Z,14.70
2022-11-28T10:33:43.156Z,13.97
2022-11-28T10:36:18.136Z,13.03
2022-11-28T10:38:46.810Z,13.83
2022-11-28T10:41:23.243Z,14.13
2022-11-28T10:43:59.462Z,13.67
2022-11-28T10:46:46.384Z,12.97
2022-11-28T10:49:25.485Z,12.33
2022-11-28T10:52:01.098Z,14.97
2022-11-28T10:54:48.888Z,14.13
2022-11-28T10:57:23.005Z,13.67
2022-11-28T11:00:03.834Z,13.83
2022-11-28T11:02:38.400Z,13.23
2022-11-28T11:05:08.494Z,14.80
2022-11-28T11:07:37.267Z,13.60
2022-11-28T11:10:16.814Z,14.23
2022-11-28T11:12:47.484Z,13.33
2022-11-28T11:15:19.262Z,14.57
2022-11-28T11:17:50.599Z,13.93
2022-11-28T11:20:34.898Z,14.43
2022-11-28T11:23:12.291Z,13.83
2022-11-28T11:25:48.255Z,13.20
2022-11-28T11:28:45.204Z,14.77
2022-11-28T11:31:23.592Z,13.63
2022-11-28T11:33:54.385Z,14.10
2022-11-28T11:36:26.782Z,14.20
2022-11-28T11:39:07.802Z,13.97
2022-11-28T11:41:36.735Z,14.03
2022-11-28T11:44:34.542Z,14.13
2022-11-28T11:47:05.910Z,14.00
2022-11-28T11:49:37.026Z,14.53
2022-11-28T11:52:08.601Z,15.60
2022-11-28T11:54:37.594Z,14.57
2022-11-28T11:57:31.358Z,14.27
2022-11-28T11:59:58.521Z,13.70
2022-11-28T12:02:35.600Z,15.03
2022-11-28T12:05:07.587Z,15.23
2022-11-28T12:07:41.058Z,13.90
2022-11-28T12:10:13.987Z,14.13
2022-11-28T12:12:42.874Z,14.50
2022-11-28T12:15:19.580Z,14.73
2022-11-28T12:18:00.543Z,16.17
2022-11-28T12:20:50.899Z,14.40
2022-11-28T12:23:30.181Z,15.30
2022-11-28T12:26:02.874Z,13.63
2022-11-28T12:28:42.972Z,14.60
2022-11-28T12:31:19.179Z,14.70
2022-11-28T12:33:57.005Z,14.60
2022-11-28T12:36:31.335Z,14.53
2022-11-28T12:39:15.254Z,15.43
2022-11-28T12:42:10.582Z,14.90
2022-11-28T12:44:55.687Z,15.17
2022-11-28T12:47:35.865Z,16.10
2022-11-28T12:50:14.088Z,16.13
2022-11-28T12:52:48.591Z,14.67
2022-11-28T12:55:23.371Z,15.50
2022-11-28T12:57:59.553Z,15.03
2022-11-28T13:00:30.785Z,15.43
2022-11-28T13:03:10.232Z,15.87
2022-11-28T13:05:55.889Z,17.60
2022-11-28T13:08:48.523Z,17.80
2022-11-28T13:11:28.480Z,16.20
2022-11-28T13:14:02.940Z,17.27
2022-11-28T13:16:37.560Z,17.03
2022-11-28T13:19:12.954Z,16.50
2022-11-28T13:21:45.867Z,16.53
2022-11-28T13:24:21.517Z,17.70
2022-11-28T13:26:58.890Z,17.90
2022-11-28T13:29:33.591Z,17.13
2022-11-28T13:32:09.078Z,16.93
2022-11-28T13:34:39.829Z,15.97
2022-11-28T13:40:09.615Z,17.00
2022-11-28T13:45:34.032Z,19.40
2022-11-28T13:51:33.488Z,19.10
2022-11-28T13:54:45.745Z,20.60
2022-11-28T13:57:27.516Z,19.53
2022-11-28T13:59:59.977Z,19.87
2022-11-28T14:02:37.220Z,20.93
2022-11-28T14:05:07.594Z,20.60
2022-11-28T14:07:38.439Z,19.77
2022-11-28T14:10:42.417Z,20.50
2022-11-28T14:13:27.113Z,21.80
2022-11-28T14:16:05.728Z,20.77
2022-11-28T14:18:56.707Z,22.30
2022-11-28T14:21:35.218Z,20.87
2022-11-28T14:24:13.767Z,20.63
2022-11-28T14:26:43.434Z,22.23
2022-11-28T14:29:21.876Z,20.80
2022-11-28T14:32:21.754Z,19.93
2022-11-28T14:34:43.743Z,21.10
2022-11-28T14:37:57.923Z,21.27
2022-11-28T14:41:06.990Z,19.63
2022-11-28T14:43:42.519Z,19.23
2022-11-28T14:46:22.078Z,18.70
2022-11-28T14:49:24.353Z,18.90
2022-11-28T14:52:41.187Z,19.33
2022-11-28T14:55:20.749Z,18.47
2022-11-28T14:57:57.675Z,19.63
2022-11-28T15:00:29.745Z,19.10
2022-11-28T15:03:11.464Z,18.23
2022-11-28T15:05:45.207Z,18.67
2022-11-28T15:08:34.640Z,18.60
2022-11-28T15:11:17.848Z,19.23
2022-11-28T15:13:58.806Z,20.37
2022-11-28T15:16:30.630Z,21.33
2022-11-28T15:19:03.774Z,18.33
2022-11-28T15:21:34.308Z,19.60
2022-11-28T15:24:03.445Z,21.43
2022-11-28T15:26:32.621Z,19.53
2022-11-28T15:29:11.555Z,19.07
2022-11-28T15:31:43.731Z,19.57
2022-11-28T15:34:12.364Z,19.27
2022-11-28T15:36:41.075Z,18.50
2022-11-28T15:39:30.123Z,18.47
2022-11-28T15:42:00.468Z,18.03
2022-11-28T15:44:29.671Z,18.27
2022-11-28T15:47:00.990Z,18.27
2022-11-28T15:49:34.188Z,17.37
2022-11-28T15:52:04.917Z,18.90
2022-11-28T15:54:37.008Z,18.03
2022-11-28T15:57:06.520Z,17.63
2022-11-28T15:59:35.233Z,18.80
2022-11-28T16:02:14.437Z,18.07
2022-11-28T16:04:43.544Z,17.73
2022-11-28T16:07:15.444Z,17.53
2022-11-28T16:09:55.229Z,18.57
2022-11-28T16:12:23.914Z,17.90
2022-11-28T16:14:55.394Z,18.10
2022-11-28T16:17:29.101Z,18.63
2022-11-28T16:19:58.107Z,17.57
2022-11-28T16:22:32.833Z,16.73
2022-11-28T16:25:14.689Z,18.30
2022-11-28T16:27:45.749Z,17.77
2022-11-28T16:30:42.815Z,18.03
2022-11-28T16:33:36.945Z,18.40
2022-11-28T16:36:18.122Z,16.10
2022-11-28T16:38:47.248Z,18.50
2022-11-28T16:41:19.807Z,17.83
2022-11-28T16:43:50.673Z,17.30
2022-11-28T16:46:21.620Z,20.00
2022-11-28T16:48:55.850Z,19.77
2022-11-28T16:51:35.438Z,19.50
2022-11-28T16:54:27.494Z,18.23
2022-11-28T16:56:59.007Z,17.17
2022-11-28T16:59:27.555Z,20.17
2022-11-28T17:01:56.290Z,18.77
2022-11-28T17:04:27.475Z,18.77
2022-11-28T17:06:57.367Z,18.87
2022-11-28T17:09:25.973Z,19.13
2022-11-28T17:11:58.034Z,19.53
2022-11-28T17:14:26.699Z,18.63
2022-11-28T17:16:55.097Z,20.10
2022-11-28T17:19:25.504Z,19.33
2022-11-28T17:21:55.960Z,18.47
2022-11-28T17:24:26.258Z,19.27
2022-11-28T17:26:55.662Z,19.30
2022-11-28T17:29:25.303Z,19.90
2022-11-28T17:31:55.430Z,20.00
2022-11-28T17:34:27.447Z,19.63
2022-11-28T17:36:55.831Z,19.93
2022-11-28T17:39:24.421Z,19.67
2022-11-28T17:41:53.255Z,20.10
2022-11-28T17:44:23.916Z,19.90
2022-11-28T17:46:53.556Z,18.67
2022-11-28T17:49:23.479Z,19.13
2022-11-28T17:51:54.641Z,19.00
2022-11-28T17:54:24.238Z,20.67
2022-11-28T17:56:54.234Z,20.30
2022-11-28T17:59:23.920Z,20.63
2022-11-28T18:01:53.784Z,21.10
2022-11-28T18:04:26.027Z,19.87
2022-11-28T18:06:55.864Z,21.37
2022-11-28T18:09:24.403Z,20.77
2022-11-28T18:11:52.904Z,20.63
2022-11-28T18:14:21.251Z,20.40
2022-11-28T18:16:49.730Z,21.53
2022-11-28T18:19:18.235Z,19.90
2022-11-28T18:21:46.975Z,21.27
2022-11-28T18:24:17.422Z,23.00
2022-11-28T18:26:45.892Z,22.50
2022-11-28T18:29:14.319Z,22.33
2022-11-28T18:31:43.987Z,25.20
2022-11-28T18:34:12.758Z,23.90
2022-11-28T18:36:41.609Z,23.60
2022-11-28T18:39:14.575Z,33.07
2022-11-28T18:41:44.382Z,25.50
2022-11-28T18:44:12.877Z,22.53
2022-11-28T18:46:41.463Z,21.23
2022-11-28T18:49:12.843Z,22.30
2022-11-28T18:51:41.133Z,21.83
2022-11-28T18:54:12.437Z,23.50
2022-11-28T18:56:43.943Z,22.17
2022-11-28T18:59:13.532Z,24.80
2022-11-28T19:01:42.429Z,22.80
2022-11-28T19:04:15.445Z,22.53
2022-11-28T19:06:45.434Z,24.60
2022-11-28T19:09:15.625Z,21.93
2022-11-28T19:11:45.850Z,23.60
2022-11-28T19:14:16.373Z,24.17
2022-11-28T19:16:45.277Z,24.20
2022-11-28T19:19:17.834Z,23.77
2022-11-28T19:21:48.689Z,24.83
2022-11-28T19:24:17.659Z,25.10
2022-11-28T19:26:47.585Z,23.83
2022-11-28T19:29:16.758Z,23.50
2022-11-28T19:31:45.211Z,24.73
2022-11-28T19:34:15.111Z,24.90
2022-11-28T19:36:44.515Z,24.40
2022-11-28T19:39:16.964Z,24.17
2022-11-28T19:41:47.438Z,24.30
2022-11-28T19:44:16.453Z,24.67
2022-11-28T19:46:45.275Z,24.93
2022-11-28T19:49:18.827Z,24.70
2022-11-28T19:51:48.013Z,25.67
2022-11-28T19:54:17.112Z,24.47
2022-11-28T19:56:47.268Z,26.67
2022-11-28T19:59:15.954Z,25.60
2022-11-28T20:01:45.547Z,26.43
2022-11-28T20:04:15.900Z,25.63
2022-11-28T20:06:44.920Z,25.50
2022-11-28T20:09:14.621Z,25.47
2022-11-28T20:11:46.457Z,24.57
2022-11-28T20:14:16.507Z,26.33
2022-11-28T20:16:45.571Z,26.17
2022-11-28T20:19:14.970Z,27.03
2022-11-28T20:21:47.604Z,25.70
2022-11-28T20:24:16.898Z,26.43
2022-11-28T20:26:50.512Z,28.50
2022-11-28T20:29:26.618Z,27.30
2022-11-28T20:31:57.156Z,26.60
2022-11-28T20:34:26.860Z,27.50
2022-11-28T20:36:55.388Z,27.33
2022-11-28T20:39:24.168Z,28.53
2022-11-28T20:41:54.157Z,26.77
2022-11-28T20:44:22.612Z,28.20
2022-11-28T20:46:51.039Z,27.63
2022-11-28T20:49:19.779Z,28.87
2022-11-28T20:51:50.372Z,30.67
2022-11-28T20:54:19.113Z,28.70
2022-11-28T20:59:37.757Z,28.33
2022-11-28T21:02:06.425Z,28.80
2022-11-28T21:04:35.175Z,27.77
2022-11-28T21:07:03.613Z,27.57
2022-11-28T21:09:32.040Z,29.80
2022-11-28T21:12:00.849Z,29.57
2022-11-28T21:14:29.587Z,28.87
2022-11-28T21:17:00.046Z,30.90
2022-11-28T21:19:28.625Z,29.77
2022-11-28T21:21:57.035Z,29.37
2022-11-28T21:24:25.618Z,29.57
2022-11-28T21:26:54.907Z,30.83
2022-11-28T21:29:24.786Z,31.07
2022-11-28T21:31:54.546Z,30.13
2022-11-28T21:34:24.644Z,30.73
2022-11-28T21:36:53.106Z,33.50
2022-11-28T21:39:22.513Z,30.93
2022-11-28T21:41:52.120Z,29.77
2022-11-28T21:44:21.267Z,30.37
2022-11-28T21:46:50.919Z,31.10
2022-11-28T21:49:19.407Z,30.67
2022-11-28T21:51:49.219Z,30.63
2022-11-28T21:54:18.313Z,31.57
2022-11-28T21:56:47.338Z,32.70
2022-11-28T21:59:16.637Z,30.80
2022-11-28T22:01:47.123Z,31.20
2022-11-28T22:04:15.730Z,31.43
2022-11-28T22:06:44.915Z,30.80
2022-11-28T22:09:15.757Z,31.10
2022-11-28T22:11:44.333Z,32.43
2022-11-28T22:14:12.910Z,31.27
2022-11-28T22:16:41.585Z,30.00
2022-11-28T22:19:10.740Z,31.37
2022-11-28T22:21:55.690Z,32.20
2022-11-28T22:24:26.078Z,34.17
2022-11-28T22:26:56.331Z,31.50
2022-11-28T22:29:25.484Z,30.87
2022-11-28T22:31:55.365Z,31.33
2022-11-28T22:34:24.631Z,32.43
2022-11-28T22:36:53.154Z,30.73
2022-11-28T22:39:22.882Z,31.37
2022-11-28T22:41:52.774Z,30.00
2022-11-28T22:44:24.635Z,29.80
2022-11-28T22:46:53.633Z,29.80
2022-11-28T22:49:22.052Z,29.93
2022-11-28T22:51:50.629Z,29.20
2022-11-28T22:54:19.774Z,30.07
2022-11-28T22:56:48.238Z,30.70
2022-11-28T22:59:18.453Z,30.13
2022-11-28T23:01:46.838Z,31.10
2022-11-28T23:04:16.142Z,29.33
2022-11-28T23:06:45.199Z,30.53
2022-11-28T23:09:15.313Z,30.70
2022-11-28T23:11:46.280Z,30.43
2022-11-28T23:14:17.470Z,26.53
2022-11-28T23:16:46.893Z,31.20
2022-11-28T23:19:16.854Z,29.87
2022-11-28T23:21:47.673Z,28.97
2022-11-28T23:24:18.680Z,27.80
2022-11-28T23:26:48.606Z,29.53
2022-11-28T23:29:19.352Z,28.20
2022-11-28T23:31:48.501Z,28.20
2022-11-28T23:34:17.118Z,28.13
2022-11-28T23:36:47.171Z,27.83
2022-11-28T23:39:16.990Z,29.53
2022-11-28T23:41:46.882Z,27.93
2022-11-28T23:44:16.808Z,28.67
2022-11-28T23:46:46.729Z,30.17
2022-11-28T23:49:16.399Z,28.27
2022-11-28T23:51:45.050Z,29.40
2022-11-28T23:54:13.592Z,30.33
2022-11-28T23:56:42.850Z,29.30
2022-11-28T23:59:12.781Z,28.80
